createdAt,value
2019-01-03T00:00:07.454Z,59.50
2019-01-03T00:03:00.174Z,59.60
2019-01-03T00:05:45.696Z,59.50
2019-01-03T00:08:31.760Z,59.30
2019-01-03T00:11:24.518Z,59.80
2019-01-03T00:14:14.237Z,59.90
2019-01-03T00:16:59.786Z,59.70
2019-01-03T00:19:45.690Z,60.10
2019-01-03T00:22:31.434Z,59.60
2019-01-03T00:25:30.535Z,59.70
2019-01-03T00:28:35.989Z,59.30
2019-01-03T00:31:23.435Z,60.00
2019-01-03T00:34:09.271Z,58.70
2019-01-03T00:37:06.922Z,59.20
2019-01-03T00:39:53.735Z,59.40
2019-01-03T00:42:54.574Z,59.30
2019-01-03T00:45:40.240Z,59.40
2019-01-03T00:48:26.250Z,58.90
2019-01-03T00:51:16.176Z,59.60
2019-01-03T00:54:02.984Z,59.50
2019-01-03T00:56:49.798Z,58.90
2019-01-03T00:59:39.387Z,59.30
2019-01-03T01:02:16.946Z,59.00
2019-01-03T01:05:02.223Z,58.70
2019-01-03T01:07:58.296Z,58.20
2019-01-03T01:10:47.987Z,59.00
2019-01-03T01:13:34.847Z,59.10
2019-01-03T01:16:18.212Z,59.10
2019-01-03T01:19:04.234Z,59.20
2019-01-03T01:21:49.734Z,58.90
2019-01-03T01:24:35.553Z,58.60
2019-01-03T01:27:28.437Z,58.60
2019-01-03T01:30:14.074Z,58.90
2019-01-03T01:33:03.609Z,59.00
2019-01-03T01:35:40.887Z,59.50
2019-01-03T01:38:22.194Z,59.30
2019-01-03T01:41:09.116Z,58.60
2019-01-03T01:43:54.764Z,59.00
2019-01-03T01:46:56.816Z,59.60
2019-01-03T01:49:42.138Z,59.10
2019-01-03T01:52:40.999Z,58.00
2019-01-03T01:55:27.834Z,59.50
2019-01-03T01:58:26.714Z,59.00
2019-01-03T02:01:12.178Z,58.70
2019-01-03T02:04:07.751Z,59.50
2019-01-03T02:06:49.504Z,59.10
2019-01-03T02:09:34.649Z,58.60
2019-01-03T02:12:17.918Z,59.00
2019-01-03T02:15:04.735Z,59.40
2019-01-03T02:17:53.217Z,59.20
2019-01-03T02:20:48.740Z,58.90
2019-01-03T02:23:44.506Z,58.60
2019-01-03T02:26:46.473Z,58.00
2019-01-03T02:29:32.261Z,58.90
2019-01-03T02:32:22.330Z,58.70
2019-01-03T02:35:09.255Z,58.70
2019-01-03T02:37:56.072Z,59.00
2019-01-03T02:40:41.418Z,58.70
2019-01-03T02:43:39.421Z,59.00
2019-01-03T02:46:32.226Z,58.70
2019-01-03T02:49:17.721Z,59.20
2019-01-03T02:52:03.610Z,58.90
2019-01-03T02:54:48.788Z,59.30
2019-01-03T02:57:53.581Z,58.70
2019-01-03T03:00:43.446Z,59.10
2019-01-03T03:03:22.905Z,59.20
2019-01-03T03:06:08.296Z,59.30
2019-01-03T03:08:54.861Z,58.90
2019-01-03T03:11:44.410Z,58.90
2019-01-03T03:14:31.252Z,59.10
2019-01-03T03:17:16.526Z,59.20
2019-01-03T03:20:05.995Z,58.90
2019-01-03T03:22:57.801Z,59.10
2019-01-03T03:25:44.736Z,59.10
2019-01-03T03:28:34.629Z,59.20
2019-01-03T03:31:36.196Z,58.90
2019-01-03T03:34:37.937Z,58.40
2019-01-03T03:37:24.846Z,58.50
2019-01-03T03:40:29.562Z,58.30
2019-01-03T03:43:16.826Z,58.20
2019-01-03T03:46:06.318Z,58.50
2019-01-03T03:48:53.156Z,57.70
2019-01-03T03:51:40.076Z,58.10
2019-01-03T03:54:25.450Z,58.20
2019-01-03T03:57:11.177Z,58.40
2019-01-03T03:59:56.350Z,58.90
2019-01-03T04:02:41.585Z,58.80
2019-01-03T04:05:28.454Z,59.10
2019-01-03T04:08:24.544Z,58.60
2019-01-03T04:11:10.054Z,59.00
2019-01-03T04:13:56.599Z,58.60
2019-01-03T04:16:49.418Z,58.20
2019-01-03T04:19:45.912Z,56.60
2019-01-03T04:22:37.106Z,57.50
2019-01-03T04:25:21.872Z,57.50
2019-01-03T04:28:07.548Z,57.30
2019-01-03T04:30:54.024Z,58.20
2019-01-03T04:33:43.857Z,58.20
2019-01-03T04:36:26.536Z,58.50
2019-01-03T04:39:19.142Z,58.80
2019-01-03T04:42:04.699Z,59.10
2019-01-03T04:44:46.151Z,58.70
2019-01-03T04:47:33.079Z,58.90
2019-01-03T04:50:38.238Z,58.70
2019-01-03T04:53:40.101Z,58.70
2019-01-03T04:56:26.915Z,59.10
2019-01-03T04:59:16.766Z,58.90
2019-01-03T05:02:05.183Z,59.00
2019-01-03T05:04:52.119Z,59.00
2019-01-03T05:07:41.871Z,59.00
2019-01-03T05:10:23.328Z,59.10
2019-01-03T05:13:04.981Z,59.40
2019-01-03T05:16:09.823Z,59.50
2019-01-03T05:18:59.630Z,59.20
2019-01-03T05:21:46.559Z,59.20
2019-01-03T05:24:45.101Z,59.10
2019-01-03T05:27:31.907Z,58.80
2019-01-03T05:30:18.386Z,58.70
2019-01-03T05:33:09.111Z,58.30
2019-01-03T05:35:59.499Z,59.20
2019-01-03T05:38:52.325Z,58.60
2019-01-03T05:41:37.969Z,59.20
2019-01-03T05:44:24.904Z,58.80
2019-01-03T05:47:17.351Z,58.80
2019-01-03T05:50:10.460Z,58.90
2019-01-03T05:53:15.472Z,59.10
2019-01-03T05:56:08.029Z,59.20
2019-01-03T05:58:54.795Z,58.80
2019-01-03T06:01:56.805Z,58.90
2019-01-03T06:04:43.637Z,58.80
2019-01-03T06:07:30.445Z,59.10
2019-01-03T06:10:31.066Z,59.60
2019-01-03T06:13:14.998Z,59.20
2019-01-03T06:16:07.747Z,58.80
2019-01-03T06:18:53.471Z,59.50
2019-01-03T06:21:40.352Z,59.80
2019-01-03T06:24:25.794Z,59.90
2019-01-03T06:27:12.693Z,59.60
2019-01-03T06:29:57.853Z,59.70
2019-01-03T06:32:53.429Z,59.40
2019-01-03T06:35:39.093Z,59.40
2019-01-03T06:38:31.735Z,59.50
2019-01-03T06:41:23.081Z,59.60
2019-01-03T06:44:08.705Z,59.40
2019-01-03T06:47:13.805Z,60.60
2019-01-03T06:49:59.278Z,60.30
2019-01-03T06:52:49.513Z,59.80
2019-01-03T06:55:31.519Z,60.20
2019-01-03T06:58:16.975Z,60.30
2019-01-03T07:01:02.341Z,60.20
2019-01-03T07:03:54.954Z,60.20
2019-01-03T07:06:44.335Z,60.00
2019-01-03T07:09:29.790Z,60.00
2019-01-03T07:12:22.831Z,59.70
2019-01-03T07:15:08.447Z,59.70
2019-01-03T07:18:13.190Z,60.10
2019-01-03T07:20:58.563Z,60.60
2019-01-03T07:23:51.398Z,60.10
2019-01-03T07:26:44.145Z,60.60
2019-01-03T07:29:29.685Z,60.20
2019-01-03T07:32:16.578Z,60.60
2019-01-03T07:35:03.386Z,60.50
2019-01-03T07:37:50.327Z,60.50
2019-01-03T07:40:32.793Z,60.50
2019-01-03T07:43:19.950Z,60.30
2019-01-03T07:46:24.672Z,60.00
2019-01-03T07:49:29.750Z,60.20
2019-01-03T07:52:15.515Z,60.90
2019-01-03T07:55:11.896Z,61.50
2019-01-03T07:57:57.900Z,61.30
2019-01-03T08:00:43.314Z,61.30
2019-01-03T08:03:24.347Z,61.90
2019-01-03T08:06:02.506Z,60.80
2019-01-03T08:09:01.106Z,61.60
2019-01-03T08:11:46.560Z,61.80
2019-01-03T08:14:35.259Z,61.50
2019-01-03T08:17:20.966Z,61.60
2019-01-03T08:20:13.302Z,61.50
2019-01-03T08:23:08.301Z,61.50
2019-01-03T08:26:04.005Z,61.50
2019-01-03T08:28:50.801Z,62.00
2019-01-03T08:31:25.549Z,61.60
2019-01-03T08:34:15.483Z,61.10
2019-01-03T08:37:00.686Z,61.10
2019-01-03T08:39:53.375Z,61.50
2019-01-03T08:42:39.005Z,61.20
2019-01-03T08:45:24.678Z,61.60
2019-01-03T08:48:11.781Z,61.30
2019-01-03T08:51:01.860Z,61.10
2019-01-03T08:53:47.372Z,61.20
2019-01-03T08:56:42.656Z,61.40
2019-01-03T08:59:29.552Z,61.20
2019-01-03T09:02:15.455Z,60.90
2019-01-03T09:05:01.496Z,60.40
2019-01-03T09:07:47.092Z,59.90
2019-01-03T09:10:39.570Z,61.40
2019-01-03T09:13:44.796Z,61.50
2019-01-03T09:16:43.712Z,61.20
2019-01-03T09:19:36.629Z,60.50
2019-01-03T09:22:25.927Z,60.70
2019-01-03T09:25:12.742Z,60.30
2019-01-03T09:27:58.310Z,60.50
2019-01-03T09:30:48.255Z,60.40
2019-01-03T09:33:50.560Z,60.80
2019-01-03T09:36:30.604Z,61.00
2019-01-03T09:39:14.091Z,60.80
2019-01-03T09:41:59.939Z,60.50
2019-01-03T09:44:56.112Z,60.10
2019-01-03T09:47:23.506Z,60.50
2019-01-03T09:49:50.831Z,59.20
2019-01-03T09:52:18.269Z,59.40
2019-01-03T09:54:45.740Z,60.30
2019-01-03T09:57:13.148Z,60.10
2019-01-03T09:59:40.582Z,60.00
2019-01-03T10:02:07.992Z,60.50
2019-01-03T10:04:35.766Z,59.90
2019-01-03T10:07:03.138Z,60.40
2019-01-03T10:09:30.486Z,60.50
2019-01-03T10:11:57.786Z,60.50
2019-01-03T10:14:25.178Z,62.30
2019-01-03T10:16:52.544Z,62.80
2019-01-03T10:19:19.948Z,63.80
2019-01-03T10:21:47.353Z,63.60
2019-01-03T10:24:14.646Z,62.70
2019-01-03T10:26:42.112Z,62.10
2019-01-03T10:29:09.506Z,62.20
2019-01-03T10:31:36.932Z,63.60
2019-01-03T10:34:04.526Z,63.60
2019-01-03T10:36:32.130Z,64.10
2019-01-03T10:38:59.651Z,63.30
2019-01-03T10:41:27.237Z,63.10
2019-01-03T10:43:54.775Z,62.90
2019-01-03T10:46:22.293Z,61.90
2019-01-03T10:48:49.821Z,60.80
2019-01-03T10:51:17.382Z,60.30
2019-01-03T10:53:44.879Z,62.00
2019-01-03T10:56:12.400Z,61.20
2019-01-03T10:58:40.379Z,61.20
2019-01-03T11:01:07.764Z,61.20
2019-01-03T11:03:35.248Z,61.30
2019-01-03T11:06:02.988Z,61.00
2019-01-03T11:08:30.411Z,60.30
2019-01-03T11:11:02.124Z,60.80
2019-01-03T11:13:27.226Z,60.80
2019-01-03T11:15:54.568Z,61.10
2019-01-03T11:18:22.399Z,61.20
2019-01-03T11:20:49.800Z,61.30
2019-01-03T11:23:17.515Z,61.00
2019-01-03T11:25:44.810Z,60.60
2019-01-03T11:28:12.238Z,60.40
2019-01-03T11:30:39.616Z,60.00
2019-01-03T11:33:07.013Z,59.50
2019-01-03T11:35:34.399Z,59.80
2019-01-03T11:38:01.814Z,59.50
2019-01-03T11:40:29.218Z,58.90
2019-01-03T11:42:56.673Z,59.30
2019-01-03T11:45:24.072Z,58.80
2019-01-03T11:47:51.728Z,59.30
2019-01-03T11:50:19.052Z,59.30
2019-01-03T11:52:46.469Z,58.30
2019-01-03T11:55:13.900Z,59.40
2019-01-03T11:57:41.339Z,59.10
2019-01-03T12:00:09.292Z,59.30
2019-01-03T12:02:36.660Z,59.70
2019-01-03T12:05:04.498Z,60.00
2019-01-03T12:07:31.849Z,58.70
2019-01-03T12:09:59.319Z,58.60
2019-01-03T12:12:26.733Z,59.80
2019-01-03T12:14:54.167Z,59.70
2019-01-03T12:17:21.943Z,59.50
2019-01-03T12:19:49.414Z,60.80
2019-01-03T12:22:17.206Z,60.20
2019-01-03T12:24:44.634Z,59.90
2019-01-03T12:27:12.395Z,59.40
2019-01-03T12:29:40.200Z,60.00
2019-01-03T12:32:07.635Z,60.30
2019-01-03T12:34:35.045Z,60.00
2019-01-03T12:37:02.426Z,59.10
2019-01-03T12:39:29.856Z,61.10
2019-01-03T12:41:57.269Z,59.20
2019-01-03T12:44:24.698Z,58.80
2019-01-03T12:46:52.368Z,58.10
2019-01-03T12:49:20.091Z,57.00
2019-01-03T12:51:47.523Z,58.60
2019-01-03T12:54:14.949Z,57.80
2019-01-03T12:56:42.626Z,56.50
2019-01-03T12:59:09.987Z,56.70
2019-01-03T13:01:37.422Z,56.50
2019-01-03T13:04:04.890Z,56.20
2019-01-03T13:06:32.266Z,55.50
2019-01-03T13:08:59.727Z,55.90
2019-01-03T13:11:27.111Z,55.80
2019-01-03T13:13:54.537Z,56.30
2019-01-03T13:16:21.825Z,55.30
2019-01-03T13:18:49.214Z,55.30
2019-01-03T13:21:16.633Z,56.90
2019-01-03T13:23:44.069Z,57.00
2019-01-03T13:26:11.780Z,54.70
2019-01-03T13:28:39.202Z,55.60
2019-01-03T13:31:06.613Z,57.50
2019-01-03T13:33:34.062Z,54.50
2019-01-03T13:36:01.490Z,55.90
2019-01-03T13:38:28.907Z,56.00
2019-01-03T13:40:56.289Z,55.60
2019-01-03T13:43:23.702Z,54.90
2019-01-03T13:45:51.129Z,55.20
2019-01-03T13:48:18.463Z,55.30
2019-01-03T13:50:45.963Z,55.40
2019-01-03T13:53:13.627Z,54.40
2019-01-03T13:55:41.517Z,56.60
2019-01-03T13:58:08.903Z,56.20
2019-01-03T14:00:36.624Z,56.40
2019-01-03T14:03:04.231Z,55.90
2019-01-03T14:05:31.670Z,55.40
2019-01-03T14:07:59.295Z,55.70
2019-01-03T14:10:26.751Z,55.40
2019-01-03T14:12:54.187Z,55.80
2019-01-03T14:15:21.955Z,54.70
2019-01-03T14:17:49.298Z,54.90
2019-01-03T14:20:16.620Z,57.10
2019-01-03T14:22:44.079Z,57.70
2019-01-03T14:25:11.496Z,56.90
2019-01-03T14:27:38.906Z,56.60
2019-01-03T14:30:08.334Z,59.80
2019-01-03T14:32:35.742Z,58.70
2019-01-03T14:35:03.079Z,61.90
2019-01-03T14:37:30.499Z,62.30
2019-01-03T14:39:57.893Z,60.60
2019-01-03T14:42:25.359Z,61.20
2019-01-03T14:44:52.766Z,60.10
2019-01-03T14:47:20.213Z,60.30
2019-01-03T14:49:47.622Z,58.80
2019-01-03T14:52:14.993Z,59.30
2019-01-03T14:54:42.437Z,60.80
2019-01-03T14:57:09.889Z,61.30
2019-01-03T14:59:37.252Z,60.40
2019-01-03T15:02:04.706Z,59.60
2019-01-03T15:04:32.166Z,59.60
2019-01-03T15:06:59.901Z,59.60
2019-01-03T15:09:27.335Z,58.80
2019-01-03T15:11:54.790Z,59.00
2019-01-03T15:14:22.225Z,59.70
2019-01-03T15:16:49.687Z,59.20
2019-01-03T15:19:17.511Z,59.00
2019-01-03T15:21:44.965Z,58.10
2019-01-03T15:24:12.391Z,59.80
2019-01-03T15:26:39.734Z,61.40
2019-01-03T15:29:07.168Z,62.30
2019-01-03T15:31:34.852Z,61.70
2019-01-03T15:34:02.521Z,61.70
2019-01-03T15:36:29.971Z,61.10
2019-01-03T15:38:57.729Z,60.40
2019-01-03T15:41:25.175Z,60.70
2019-01-03T15:43:52.630Z,60.70
2019-01-03T15:46:20.098Z,60.30
2019-01-03T15:48:47.578Z,60.30
2019-01-03T15:51:15.318Z,60.20
2019-01-03T15:53:42.716Z,59.70
2019-01-03T15:56:10.206Z,60.00
2019-01-03T15:58:37.609Z,60.30
2019-01-03T16:01:06.907Z,59.70
2019-01-03T16:03:34.341Z,59.70
2019-01-03T16:06:02.061Z,59.30
2019-01-03T16:08:30.120Z,60.60
2019-01-03T16:10:57.490Z,60.70
2019-01-03T16:13:25.020Z,61.20
2019-01-03T16:15:52.833Z,61.60
2019-01-03T16:18:20.312Z,61.60
2019-01-03T16:20:47.786Z,61.70
2019-01-03T16:23:15.542Z,61.80
2019-01-03T16:25:42.923Z,62.40
2019-01-03T16:28:10.338Z,62.30
2019-01-03T16:30:37.698Z,62.30
2019-01-03T16:33:05.370Z,61.40
2019-01-03T16:35:32.823Z,64.20
2019-01-03T16:38:00.274Z,64.40
2019-01-03T16:40:27.682Z,66.20
2019-01-03T16:42:55.080Z,67.80
2019-01-03T16:45:22.505Z,68.30
2019-01-03T16:47:49.972Z,67.00
2019-01-03T16:50:17.451Z,67.00
2019-01-03T16:52:44.911Z,67.80
2019-01-03T16:55:12.379Z,68.50
2019-01-03T16:57:39.803Z,68.20
2019-01-03T17:00:09.053Z,67.50
2019-01-03T17:02:36.518Z,67.60
2019-01-03T17:05:04.511Z,67.60
2019-01-03T17:07:31.966Z,68.50
2019-01-03T17:09:59.363Z,69.10
2019-01-03T17:12:26.790Z,70.80
2019-01-03T17:14:54.117Z,68.50
2019-01-03T17:17:21.927Z,67.40
2019-01-03T17:19:49.374Z,68.70
2019-01-03T17:22:16.779Z,68.60
2019-01-03T17:24:44.255Z,70.20
2019-01-03T17:27:11.730Z,71.40
2019-01-03T17:29:39.433Z,70.90
2019-01-03T17:32:06.874Z,70.90
2019-01-03T17:34:34.310Z,69.90
2019-01-03T17:37:01.751Z,68.60
2019-01-03T17:39:29.210Z,68.00
2019-01-03T17:41:56.662Z,68.20
2019-01-03T17:44:24.122Z,68.60
2019-01-03T17:46:52.237Z,70.10
2019-01-03T17:49:19.686Z,68.90
2019-01-03T17:51:47.526Z,69.90
2019-01-03T17:54:16.506Z,71.00
2019-01-03T17:56:43.949Z,70.40
2019-01-03T17:59:11.749Z,69.80
2019-01-03T18:01:39.285Z,69.20
2019-01-03T18:04:06.710Z,70.30
2019-01-03T18:06:34.164Z,69.40
2019-01-03T18:09:01.651Z,68.50
2019-01-03T18:11:29.095Z,68.30
2019-01-03T18:13:56.468Z,67.80
2019-01-03T18:16:23.923Z,68.00
2019-01-03T18:18:51.553Z,67.70
2019-01-03T18:21:19.038Z,66.90
2019-01-03T18:23:46.837Z,66.60
2019-01-03T18:26:14.319Z,66.30
2019-01-03T18:28:42.097Z,66.30
2019-01-03T18:31:09.545Z,66.50
2019-01-03T18:33:37.373Z,66.40
2019-01-03T18:36:05.105Z,66.10
2019-01-03T18:38:32.857Z,66.10
2019-01-03T18:41:00.187Z,65.80
2019-01-03T18:43:27.726Z,65.90
2019-01-03T18:45:55.175Z,65.80
2019-01-03T18:48:22.676Z,65.80
2019-01-03T18:50:50.461Z,65.40
2019-01-03T18:53:17.881Z,65.10
2019-01-03T18:55:45.310Z,65.20
2019-01-03T18:58:12.803Z,65.40
2019-01-03T19:00:40.349Z,65.30
2019-01-03T19:03:07.775Z,65.30
2019-01-03T19:05:35.245Z,65.00
2019-01-03T19:08:02.772Z,65.10
2019-01-03T19:10:30.241Z,65.10
2019-01-03T19:12:57.694Z,65.10
2019-01-03T19:15:25.163Z,65.00
2019-01-03T19:17:53.049Z,66.10
2019-01-03T19:20:20.608Z,65.90
2019-01-03T19:22:48.129Z,65.90
2019-01-03T19:25:17.457Z,66.10
2019-01-03T19:27:44.948Z,66.00
2019-01-03T19:30:12.520Z,65.80
2019-01-03T19:32:41.415Z,65.70
2019-01-03T19:35:09.423Z,65.70
2019-01-03T19:37:36.912Z,65.70
2019-01-03T19:40:05.157Z,65.50
2019-01-03T19:42:32.678Z,65.00
2019-01-03T19:45:00.287Z,65.30
2019-01-03T19:47:27.833Z,65.40
2019-01-03T19:49:55.391Z,64.90
2019-01-03T19:52:22.926Z,64.70
2019-01-03T19:54:50.753Z,64.90
2019-01-03T19:57:18.160Z,65.00
2019-01-03T19:59:45.621Z,65.00
2019-01-03T20:02:13.205Z,65.10
2019-01-03T20:04:40.802Z,64.70
2019-01-03T20:07:08.656Z,64.40
2019-01-03T20:09:36.142Z,64.20
2019-01-03T20:12:03.689Z,64.30
2019-01-03T20:14:31.186Z,64.30
2019-01-03T20:16:58.635Z,64.40
2019-01-03T20:19:26.111Z,63.50
2019-01-03T20:21:54.305Z,64.10
2019-01-03T20:24:22.450Z,64.20
2019-01-03T20:26:49.977Z,64.00
2019-01-03T20:29:17.596Z,63.80
2019-01-03T20:31:45.191Z,64.10
2019-01-03T20:34:12.698Z,63.80
2019-01-03T20:36:40.266Z,63.40
2019-01-03T20:39:08.140Z,64.00
2019-01-03T20:41:36.512Z,63.80
2019-01-03T20:44:04.008Z,63.60
2019-01-03T20:46:31.916Z,63.60
2019-01-03T20:48:59.440Z,63.90
2019-01-03T20:51:27.168Z,63.60
2019-01-03T20:53:54.965Z,63.30
2019-01-03T20:56:22.510Z,63.10
2019-01-03T20:58:49.977Z,63.20
2019-01-03T21:01:17.488Z,63.80
2019-01-03T21:03:45.002Z,63.40
2019-01-03T21:06:12.602Z,63.40
2019-01-03T21:08:40.172Z,63.80
2019-01-03T21:11:07.661Z,64.30
2019-01-03T21:13:35.587Z,64.30
2019-01-03T21:16:03.189Z,64.20
2019-01-03T21:18:30.667Z,63.10
2019-01-03T21:20:58.150Z,63.60
2019-01-03T21:23:25.557Z,63.40
2019-01-03T21:25:53.086Z,63.50
2019-01-03T21:28:20.617Z,64.20
2019-01-03T21:30:48.158Z,63.30
2019-01-03T21:33:15.677Z,62.90
2019-01-03T21:35:43.216Z,63.10
2019-01-03T21:38:10.793Z,63.30
2019-01-03T21:40:38.350Z,63.10
2019-01-03T21:43:05.878Z,63.10
2019-01-03T21:45:33.385Z,63.00
2019-01-03T21:48:01.248Z,62.00
2019-01-03T21:50:28.752Z,62.40
2019-01-03T21:52:56.736Z,62.50
2019-01-03T21:55:24.546Z,62.20
2019-01-03T21:57:52.472Z,63.60
2019-01-03T22:00:20.506Z,63.30
2019-01-03T22:02:47.977Z,62.70
2019-01-03T22:05:15.902Z,62.30
2019-01-03T22:07:44.512Z,62.90
2019-01-03T22:10:12.760Z,62.80
2019-01-03T22:12:40.345Z,62.70
2019-01-03T22:15:09.790Z,62.90
2019-01-03T22:17:37.978Z,62.90
2019-01-03T22:20:08.630Z,63.00
2019-01-03T22:22:37.083Z,62.90
2019-01-03T22:25:05.374Z,63.00
2019-01-03T22:27:33.231Z,63.10
2019-01-03T22:30:01.219Z,62.90
2019-01-03T22:32:28.950Z,63.30
2019-01-03T22:34:56.680Z,63.30
2019-01-03T22:37:24.350Z,63.10
2019-01-03T22:39:52.010Z,63.10
2019-01-03T22:42:19.760Z,62.60
2019-01-03T22:44:47.684Z,62.60
2019-01-03T22:47:15.228Z,62.70
2019-01-03T22:49:43.042Z,62.50
2019-01-03T22:52:10.876Z,62.40
2019-01-03T22:54:38.401Z,63.60
2019-01-03T22:57:06.150Z,62.60
2019-01-03T22:59:33.732Z,63.40
2019-01-03T23:02:01.517Z,62.70
2019-01-03T23:04:29.254Z,63.10
2019-01-03T23:06:57.322Z,63.10
2019-01-03T23:09:24.959Z,62.50
2019-01-03T23:11:52.407Z,62.90
2019-01-03T23:14:19.886Z,63.30
2019-01-03T23:16:47.437Z,63.00
2019-01-03T23:19:15.081Z,63.10
2019-01-03T23:21:42.929Z,62.70
2019-01-03T23:24:10.765Z,62.90
2019-01-03T23:26:38.586Z,62.90
2019-01-03T23:29:06.141Z,62.90
2019-01-03T23:31:33.781Z,63.00
2019-01-03T23:34:01.391Z,63.10
2019-01-03T23:36:28.920Z,63.30
2019-01-03T23:38:56.782Z,63.30
2019-01-03T23:41:24.215Z,63.40
2019-01-03T23:43:51.918Z,63.30
2019-01-03T23:46:19.494Z,63.60
2019-01-03T23:48:47.024Z,64.00
2019-01-03T23:51:14.564Z,63.60
2019-01-03T23:53:42.099Z,63.80
2019-01-03T23:56:09.720Z,64.10
2019-01-03T23:58:37.237Z,64.20
